Time;durP1;ratioP1;P1;durP2;ratioP2;P2;SDS_P1;SDS_P2;PMS_P1;PMS_P2;Temp;Humidity;BMP_temperature;BMP_pressure;BME280_temperature;BME280_humidity;BME280_pressure;Samples;Min_cycle;Max_cycle;Signal;HPM_P1;HPM_P2
2022/04/21 00:00:15;;;;;;;10.27;6.22;;;;;;;7.07;49.90;95911.22;4954158;28;20046;-66
2022/04/21 00:02:41;;;;;;;14.90;6.40;;;;;;;6.98;49.67;95911.47;4971367;28;20133;-67
2022/04/21 00:05:11;;;;;;;10.80;6.22;;;;;;;6.93;50.45;95908.25;4971296;28;20026;-67
2022/04/21 00:07:37;;;;;;;10.75;6.25;;;;;;;6.96;50.06;95905.59;4971190;28;20042;-66
2022/04/21 00:10:04;;;;;;;11.25;6.55;;;;;;;6.91;50.41;95905.13;4953997;28;20102;-67
2022/04/21 00:12:30;;;;;;;12.18;7.72;;;;;;;6.88;50.06;95909.38;4971240;28;20565;-67
2022/04/21 00:14:55;;;;;;;12.48;6.65;;;;;;;6.87;50.07;95905.06;4971313;28;20119;-67
2022/04/21 00:17:21;;;;;;;12.00;6.28;;;;;;;6.96;49.93;95899.38;4970353;28;20034;-67
2022/04/21 00:19:46;;;;;;;10.60;5.80;;;;;;;6.93;50.05;95902.81;4971287;28;20069;-67
2022/04/21 00:24:56;;;;;;;14.00;7.05;;;;;;;6.88;50.21;95893.81;4971375;28;20042;-68
2022/04/21 00:27:21;;;;;;;11.52;6.90;;;;;;;6.88;50.05;95893.03;4970892;28;20034;-67
2022/04/21 00:29:46;;;;;;;11.90;6.70;;;;;;;6.87;50.01;95900.38;4954595;28;20042;-66
2022/04/21 00:32:12;;;;;;;21.15;6.45;;;;;;;6.84;50.13;95892.97;4972000;28;20538;-65
2022/04/21 00:34:38;;;;;;;9.40;6.40;;;;;;;6.82;50.10;95895.25;4972238;28;20121;-70
2022/04/21 00:37:04;;;;;;;11.13;6.70;;;;;;;6.84;49.94;95906.59;4971554;28;20127;-68
2022/04/21 00:39:32;;;;;;;9.93;6.22;;;;;;;6.78;50.04;95894.41;4971394;28;20073;-66
2022/04/21 00:41:59;;;;;;;10.48;6.63;;;;;;;6.74;50.52;95895.50;4971416;28;20154;-68
2022/04/21 00:44:26;;;;;;;10.80;6.40;;;;;;;6.71;50.22;95894.28;4970787;28;20074;-66
2022/04/21 00:46:53;;;;;;;10.68;6.38;;;;;;;6.75;49.96;95895.09;4970455;28;20039;-66
2022/04/21 00:49:21;;;;;;;12.27;6.95;;;;;;;6.74;50.28;95901.72;4953798;28;20045;-67
2022/04/21 00:51:48;;;;;;;11.48;6.95;;;;;;;6.69;50.24;95893.84;4970818;28;20039;-67
2022/04/21 00:54:13;;;;;;;12.77;6.75;;;;;;;6.62;50.71;95885.56;4970776;28;20094;-66
2022/04/21 00:56:41;;;;;;;13.40;6.45;;;;;;;6.63;50.33;95884.41;4970222;28;20468;-67
2022/04/21 00:59:07;;;;;;;9.30;5.72;;;;;;;6.53;50.72;95885.78;4970844;28;20031;-66
2022/04/21 01:04:18;;;;;;;11.73;6.45;;;;;;;6.51;50.65;95893.50;4970690;28;20035;-66
2022/04/21 01:06:45;;;;;;;11.65;6.45;;;;;;;6.53;50.43;95883.06;4968745;28;20054;-65
2022/04/21 01:09:11;;;;;;;12.30;6.90;;;;;;;6.41;51.19;95896.81;4972407;28;20053;-66
2022/04/21 01:11:37;;;;;;;11.23;6.85;;;;;;;6.37;51.56;95888.56;4956827;28;20034;-66
2022/04/21 01:14:04;;;;;;;10.43;6.70;;;;;;;6.40;50.77;95887.88;4974021;28;20062;-66
2022/04/21 01:16:29;;;;;;;10.25;6.60;;;;;;;6.26;51.69;95893.03;4973298;28;20077;-67
2022/04/21 01:18:56;;;;;;;9.50;6.55;;;;;;;6.20;52.07;95892.53;4956741;28;20058;-66
2022/04/21 01:21:21;;;;;;;10.52;6.05;;;;;;;6.15;52.31;95890.09;4974086;28;20117;-66
2022/04/21 01:23:46;;;;;;;11.85;6.38;;;;;;;6.13;52.03;95885.00;4956430;28;20113;-66
2022/04/21 01:26:12;;;;;;;12.50;6.38;;;;;;;6.05;52.26;95886.03;4973383;28;20448;-67
2022/04/21 01:28:38;;;;;;;10.75;6.40;;;;;;;5.94;52.79;95888.47;4956563;28;20155;-66
2022/04/21 01:31:03;;;;;;;16.30;6.85;;;;;;;5.97;52.14;95888.94;4974483;28;20418;-66
2022/04/21 01:33:29;;;;;;;11.02;6.38;;;;;;;5.90;52.51;95895.75;4974669;28;20041;-66
2022/04/21 01:35:54;;;;;;;11.52;5.88;;;;;;;5.90;52.68;95893.03;4973878;28;20377;-67
2022/04/21 01:41:10;;;;;;;11.80;6.85;;;;;;;5.74;53.09;95882.25;4973797;28;20507;-67
2022/04/21 01:43:40;;;;;;;8.10;5.30;;;;;;;5.72;53.37;95886.44;4974353;28;20177;-66
2022/04/21 01:46:06;;;;;;;9.75;6.35;;;;;;;5.65;53.60;95883.56;4981832;28;20106;-68
2022/04/21 01:48:31;;;;;;;10.98;6.63;;;;;;;5.61;53.61;95888.13;4981006;28;20058;-66
2022/04/21 01:50:57;;;;;;;11.52;6.78;;;;;;;5.54;54.63;95881.38;4975109;28;20031;-67
2022/04/21 01:53:22;;;;;;;9.05;6.03;;;;;;;5.59;54.39;95876.84;4974608;28;20112;-68
2022/04/21 01:55:48;;;;;;;10.20;6.22;;;;;;;5.52;54.26;95880.94;4974339;28;20030;-66
2022/04/21 01:58:14;;;;;;;10.57;6.53;;;;;;;5.55;54.26;95877.53;4974046;28;20042;-65
2022/04/21 02:00:43;;;;;;;12.27;5.65;;;;;;;5.44;54.52;95878.41;4974430;28;20416;-67
2022/04/21 02:03:08;;;;;;;10.95;6.28;;;;;;;5.43;55.67;95869.50;4972223;28;20045;-66
2022/04/21 02:05:33;;;;;;;12.57;6.20;;;;;;;5.59;56.34;95872.19;4977837;28;20042;-66
2022/04/21 02:08:00;;;;;;;10.48;6.68;;;;;;;5.68;56.32;95861.91;4983288;28;20078;-67
2022/04/21 02:10:25;;;;;;;10.85;6.57;;;;;;;5.51;56.71;95865.81;4983596;28;20113;-67
2022/04/21 02:12:51;;;;;;;10.18;6.70;;;;;;;5.41;57.03;95858.19;4984064;28;20068;-67
2022/04/21 02:15:17;;;;;;;18.20;6.47;;;;;;;5.31;57.73;95861.44;4983844;28;20022;-67
2022/04/21 02:17:44;;;;;;;10.52;6.70;;;;;;;5.21;58.62;95864.72;4981348;28;20058;-67
2022/04/21 02:20:12;;;;;;;10.95;6.25;;;;;;;5.13;58.90;95855.59;4974241;28;20109;-68
2022/04/21 02:22:38;;;;;;;11.68;6.38;;;;;;;5.03;59.02;95853.44;4956080;28;20031;-66
2022/04/21 02:25:04;;;;;;;10.43;6.70;;;;;;;4.91;59.48;95857.81;4973839;28;20631;-65
2022/04/21 02:27:30;;;;;;;10.30;6.60;;;;;;;4.82;59.17;95851.00;4937917;28;20495;-66
2022/04/21 02:29:56;;;;;;;10.82;6.50;;;;;;;4.74;59.38;95850.81;4973969;28;20061;-66
2022/04/21 02:32:22;;;;;;;9.23;5.95;;;;;;;4.68;59.16;95859.53;4973812;28;20038;-71
2022/04/21 02:34:47;;;;;;;9.88;6.13;;;;;;;4.65;59.22;95863.75;4975395;28;20030;-68
2022/04/21 02:37:13;;;;;;;10.75;5.88;;;;;;;4.62;59.29;95858.25;4956987;28;20085;-67
2022/04/21 02:39:39;;;;;;;11.07;6.55;;;;;;;4.51;59.29;95850.59;4974015;28;20031;-66
2022/04/21 02:42:04;;;;;;;10.98;6.45;;;;;;;4.54;60.20;95858.06;4971853;28;20078;-66
2022/04/21 02:44:31;;;;;;;12.27;6.28;;;;;;;4.78;59.01;95848.97;4956389;28;20472;-66
2022/04/21 02:46:58;;;;;;;10.27;5.97;;;;;;;4.70;59.13;95857.28;4973303;28;20062;-67
2022/04/21 02:49:24;;;;;;;11.93;6.88;;;;;;;4.51;59.52;95844.41;4977238;28;20101;-67
2022/04/21 02:51:52;;;;;;;9.48;6.22;;;;;;;4.39;60.59;95850.66;4989871;28;20059;-68
2022/04/21 02:57:20;;;;;;;12.52;6.30;;;;;;;4.27;60.36;95846.13;4985804;28;20086;-66
2022/04/21 02:59:46;;;;;;;11.38;6.03;;;;;;;4.13;61.63;95843.78;4973549;28;20038;-66
2022/04/21 03:02:12;;;;;;;10.02;6.40;;;;;;;4.04;61.55;95843.16;4972829;28;20031;-66
2022/04/21 03:04:37;;;;;;;11.27;6.15;;;;;;;4.06;62.66;95842.81;4973031;28;20104;-66
2022/04/21 03:07:03;;;;;;;12.05;7.10;;;;;;;3.90;64.81;95845.47;4955206;28;20038;-67
2022/04/21 03:09:29;;;;;;;11.85;7.07;;;;;;;3.62;66.87;95852.44;4972359;28;20034;-68
2022/04/21 03:12:01;;;;;;;11.18;7.25;;;;;;;3.52;67.56;95846.72;4972915;28;20033;-67
2022/04/21 03:14:26;;;;;;;12.60;6.90;;;;;;;3.58;67.51;95842.63;4972865;28;20041;-67
2022/04/21 03:16:51;;;;;;;10.57;6.68;;;;;;;3.61;66.85;95841.94;4972121;28;20027;-66
2022/04/21 03:19:17;;;;;;;12.23;7.25;;;;;;;3.76;65.39;95846.66;4955510;28;20037;-67
2022/04/21 03:24:29;;;;;;;13.95;7.45;;;;;;;3.90;63.77;95835.41;4967202;28;20397;-67
2022/04/21 03:26:55;;;;;;;12.23;6.35;;;;;;;3.85;63.79;95841.06;4963259;28;20492;-67
2022/04/21 03:29:21;;;;;;;11.30;6.95;;;;;;;3.96;64.54;95844.09;4972805;28;20041;-67
2022/04/21 03:31:48;;;;;;;12.82;7.50;;;;;;;4.00;63.43;95845.78;4972528;28;20031;-66
2022/04/21 03:34:16;;;;;;;12.45;7.10;;;;;;;4.09;62.85;95851.03;4973084;28;20023;-66
2022/04/21 03:36:45;;;;;;;12.43;6.65;;;;;;;4.02;63.61;95845.44;4954402;28;20035;-68
2022/04/21 03:39:10;;;;;;;12.90;7.60;;;;;;;3.75;65.80;95852.41;4972070;28;20114;-66
2022/04/21 03:41:37;;;;;;;11.07;7.10;;;;;;;3.67;65.05;95843.28;4970849;28;20114;-68
2022/04/21 03:44:04;;;;;;;11.55;6.90;;;;;;;3.71;65.23;95852.31;4972214;28;20031;-66
2022/04/21 03:46:31;;;;;;;16.73;7.35;;;;;;;3.81;64.86;95853.72;4971795;28;20034;-66
2022/04/21 03:48:56;;;;;;;10.60;6.32;;;;;;;3.73;64.46;95841.13;4971579;28;20519;-69
2022/04/21 03:51:22;;;;;;;12.57;7.75;;;;;;;3.80;63.93;95850.25;4972199;28;20043;-66
2022/04/21 03:53:47;;;;;;;10.10;6.53;;;;;;;3.86;63.96;95852.72;4971923;28;20031;-66
2022/04/21 03:56:12;;;;;;;14.57;7.60;;;;;;;3.71;63.99;95846.09;4953305;28;20102;-67
2022/04/21 03:58:38;;;;;;;10.38;6.72;;;;;;;3.73;63.63;95846.56;4954644;28;20035;-67
2022/04/21 04:01:03;;;;;;;11.73;7.28;;;;;;;3.71;64.16;95838.75;4972194;28;20061;-67
2022/04/21 04:03:29;;;;;;;16.55;7.45;;;;;;;3.80;64.24;95835.91;4971707;28;20125;-67
2022/04/21 04:05:54;;;;;;;17.77;8.05;;;;;;;3.91;63.24;95847.06;4971895;28;20037;-66
2022/04/21 04:11:03;;;;;;;13.00;7.63;;;;;;;3.82;64.85;95834.44;4975633;28;20070;-67
2022/04/21 04:13:30;;;;;;;12.07;6.55;;;;;;;3.87;64.21;95829.91;4976824;28;20026;-66
2022/04/21 04:15:56;;;;;;;17.33;6.72;;;;;;;3.63;64.98;95831.56;4972832;28;20399;-67
2022/04/21 04:18:22;;;;;;;12.98;7.47;;;;;;;3.57;65.50;95835.66;4972079;28;20476;-67
2022/04/21 04:20:48;;;;;;;13.77;6.93;;;;;;;3.54;64.95;95839.03;4969467;28;20097;-67
2022/04/21 04:23:19;;;;;;;13.75;7.53;;;;;;;3.68;64.00;95844.84;4971994;28;20030;-67
2022/04/21 04:25:44;;;;;;;12.35;7.30;;;;;;;3.59;64.69;95839.56;4971194;28;20058;-67
2022/04/21 04:28:10;;;;;;;11.07;7.30;;;;;;;3.74;63.50;95838.06;4971910;28;20069;-66
2022/04/21 04:30:40;;;;;;;13.68;7.97;;;;;;;3.77;64.03;95848.22;4971073;28;20031;-67
2022/04/21 04:33:08;;;;;;;;;;;;;;;3.76;64.06;95843.13;4972352;28;20030;-68
2022/04/21 04:35:34;;;;;;;10.73;6.45;;;;;;;3.75;63.97;95836.16;4970476;28;19925;-67
2022/04/21 04:37:59;;;;;;;11.48;7.03;;;;;;;3.76;64.38;95838.53;4970424;28;20031;-68
2022/04/21 04:40:26;;;;;;;11.55;6.95;;;;;;;3.75;63.24;95836.94;4954559;28;20065;-66
2022/04/21 04:42:55;;;;;;;14.05;6.78;;;;;;;3.77;64.23;95834.66;4973079;28;20042;-66
2022/04/21 04:48:05;;;;;;;13.38;6.55;;;;;;;3.94;62.64;95840.94;4960979;28;20126;-64
2022/04/21 04:50:31;;;;;;;11.55;7.05;;;;;;;4.00;62.06;95839.56;4958153;28;20463;-66
2022/04/21 04:52:58;;;;;;;14.07;7.18;;;;;;;4.11;62.62;95850.72;4974887;28;20023;-67
2022/04/21 04:55:24;;;;;;;13.18;7.30;;;;;;;4.25;63.03;95842.97;4975631;28;20436;-66
2022/04/21 04:57:50;;;;;;;11.48;6.93;;;;;;;4.32;62.52;95855.91;4975732;28;20038;-68
2022/04/21 05:00:15;;;;;;;11.30;6.93;;;;;;;4.52;62.56;95849.47;4975504;28;20493;-66
2022/04/21 05:02:41;;;;;;;11.77;7.50;;;;;;;4.70;61.69;95855.38;4958384;28;20492;-67
2022/04/21 05:05:07;;;;;;;12.50;7.28;;;;;;;4.68;62.03;95856.84;4975305;28;20031;-67
2022/04/21 05:07:33;;;;;;;11.52;7.38;;;;;;;4.78;61.98;95845.47;4957570;28;20030;-67
2022/04/21 05:09:58;;;;;;;12.73;7.82;;;;;;;5.23;60.53;95857.00;4975718;28;20048;-67
2022/04/21 05:12:24;;;;;;;10.63;6.80;;;;;;;6.18;57.85;95848.59;4975526;28;20039;-69
2022/04/21 05:14:49;;;;;;;11.73;6.00;;;;;;;7.14;53.91;95843.28;4956689;28;20392;-66
2022/04/21 05:17:14;;;;;;;8.73;5.63;;;;;;;8.06;50.91;95849.63;4957128;28;20101;-65
2022/04/21 05:19:40;;;;;;;11.15;6.75;;;;;;;9.29;48.21;95839.56;4975362;28;20291;-66
2022/04/21 05:22:07;;;;;;;12.57;6.10;;;;;;;10.51;45.23;95840.22;4973966;28;20045;-66
2022/04/21 05:24:33;;;;;;;10.70;5.85;;;;;;;11.33;43.08;95836.00;4958675;28;20460;-67
2022/04/21 05:27:00;;;;;;;10.40;5.70;;;;;;;11.00;44.02;95839.91;4983348;28;20030;-67
2022/04/21 05:32:11;;;;;;;9.80;5.97;;;;;;;13.51;37.17;95830.69;4987668;28;20023;-67
2022/04/21 05:34:37;;;;;;;8.57;5.63;;;;;;;12.84;37.14;95832.78;4983873;28;20083;-66
2022/04/21 05:37:03;;;;;;;9.30;5.93;;;;;;;9.41;43.32;95830.28;4958226;28;20030;-66
2022/04/21 05:39:29;;;;;;;9.40;5.70;;;;;;;10.16;43.47;95823.66;4974542;28;20062;-66
2022/04/21 05:42:00;;;;;;;10.88;6.10;;;;;;;9.08;45.02;95831.22;4975836;28;20038;-66
2022/04/21 05:44:27;;;;;;;12.00;6.13;;;;;;;7.32;50.54;95824.47;4975387;28;20027;-65
2022/04/21 05:46:53;;;;;;;11.27;6.28;;;;;;;7.34;51.15;95832.28;4957049;28;20476;-67
2022/04/21 05:49:19;;;;;;;13.35;6.97;;;;;;;7.83;50.05;95834.94;4957910;28;20041;-66
2022/04/21 05:51:46;;;;;;;11.43;6.78;;;;;;;7.36;51.20;95832.72;4974201;28;20106;-66
2022/04/21 05:54:12;;;;;;;12.52;6.25;;;;;;;8.59;48.84;95836.63;4974168;28;20031;-65
2022/04/21 05:56:38;;;;;;;14.48;6.70;;;;;;;8.07;50.15;95829.34;4977810;28;20443;-66
2022/04/21 05:59:03;;;;;;;10.43;6.68;;;;;;;7.71;51.33;95824.25;4984008;28;20087;-66
2022/04/21 06:01:30;;;;;;;11.00;6.07;;;;;;;7.89;50.18;95819.03;4978084;28;20043;-65
2022/04/21 06:03:56;;;;;;;14.65;7.47;;;;;;;8.12;50.37;95829.84;4982390;28;20496;-64
2022/04/21 06:06:21;;;;;;;9.27;6.07;;;;;;;8.95;47.84;95827.97;4973827;28;20035;-65
2022/04/21 06:08:47;;;;;;;13.88;7.40;;;;;;;8.54;47.76;95817.84;4974384;28;20026;-65
2022/04/21 06:11:13;;;;;;;11.07;6.78;;;;;;;8.87;46.83;95821.66;4974121;28;20039;-68
2022/04/21 06:13:41;;;;;;;13.10;8.20;;;;;;;9.27;48.02;95832.91;4973635;28;20027;-68
2022/04/21 06:16:06;;;;;;;10.57;6.97;;;;;;;9.57;46.62;95830.00;4972320;28;20035;-65
2022/04/21 06:18:32;;;;;;;9.77;7.15;;;;;;;9.46;46.70;95829.91;4973798;28;20373;-65
2022/04/21 06:20:57;;;;;;;13.50;7.03;;;;;;;8.55;47.93;95824.06;4974002;28;20154;-66
2022/04/21 06:23:23;;;;;;;12.60;6.57;;;;;;;8.74;48.60;95828.56;4973664;28;20385;-67
2022/04/21 06:25:53;;;;;;;10.52;6.95;;;;;;;8.72;48.92;95825.44;4972177;28;20038;-66
2022/04/21 06:28:19;;;;;;;15.73;8.65;;;;;;;8.49;48.93;95825.59;4973116;28;20058;-66
2022/04/21 06:30:44;;;;;;;17.02;7.00;;;;;;;9.76;44.96;95818.78;4973838;28;20035;-67
2022/04/21 06:33:09;;;;;;;13.55;7.07;;;;;;;8.98;47.75;95829.94;4972762;28;20049;-67
2022/04/21 06:35:35;;;;;;;10.30;6.65;;;;;;;8.63;47.93;95822.22;4976460;28;20050;-66
2022/04/21 06:38:00;;;;;;;10.70;6.72;;;;;;;8.49;48.79;95820.13;4984789;28;20038;-67
2022/04/21 06:40:26;;;;;;;12.55;6.60;;;;;;;9.08;48.06;95815.59;4973847;28;20034;-67
2022/04/21 06:42:51;;;;;;;12.57;6.90;;;;;;;8.55;48.33;95821.34;4973747;28;20034;-68
2022/04/21 06:48:01;;;;;;;13.20;7.82;;;;;;;9.13;46.54;95820.72;4966906;28;20034;-68
2022/04/21 06:50:27;;;;;;;13.18;7.95;;;;;;;9.07;47.21;95819.47;4973239;28;20047;-66
2022/04/21 06:52:53;;;;;;;16.80;11.40;;;;;;;8.82;48.27;95821.22;4973247;28;20031;-67
2022/04/21 06:55:18;;;;;;;16.23;9.23;;;;;;;8.44;49.32;95826.69;4973310;28;20449;-67
2022/04/21 06:57:44;;;;;;;13.57;7.03;;;;;;;8.74;48.34;95823.88;4973052;28;20065;-67
2022/04/21 07:00:10;;;;;;;13.40;7.63;;;;;;;8.92;47.69;95818.59;4968160;28;20035;-68
2022/04/21 07:02:38;;;;;;;14.32;7.43;;;;;;;9.51;47.19;95821.38;4950778;28;20035;-66
2022/04/21 07:05:05;;;;;;;11.95;7.25;;;;;;;9.14;48.08;95826.94;4969158;28;20464;-67
2022/04/21 07:07:30;;;;;;;10.18;6.80;;;;;;;10.31;46.03;95815.13;4968463;28;20043;-66
2022/04/21 07:10:00;;;;;;;12.32;6.93;;;;;;;11.13;43.21;95815.63;4967502;28;20046;-67
2022/04/21 07:12:31;;;;;;;9.88;7.00;;;;;;;11.22;42.73;95811.34;4972178;28;20547;-67
2022/04/21 07:14:58;;;;;;;12.70;6.60;;;;;;;12.48;40.08;95813.75;4964289;28;20038;-68
2022/04/21 07:17:24;;;;;;;10.10;6.53;;;;;;;14.66;37.38;95803.88;4946593;28;20140;-66
2022/04/21 07:19:49;;;;;;;12.65;8.27;;;;;;;14.06;38.20;95811.66;4969780;28;20078;-72
2022/04/21 07:22:15;;;;;;;12.73;7.55;;;;;;;12.99;39.15;95819.72;4957865;28;20085;-67
2022/04/21 07:24:41;;;;;;;14.70;9.05;;;;;;;12.24;40.13;95807.19;4944510;28;20189;-66
2022/04/21 07:27:06;;;;;;;15.18;8.18;;;;;;;11.23;42.57;95809.38;4954791;28;20097;-66
2022/04/21 07:29:31;;;;;;;12.23;7.20;;;;;;;11.54;41.64;95804.25;4958560;28;20043;-67
2022/04/21 07:31:57;;;;;;;11.60;7.57;;;;;;;10.95;43.47;95800.00;4961974;28;20038;-65
2022/04/21 07:34:23;;;;;;;10.35;6.72;;;;;;;10.62;44.28;95796.41;4932603;28;20520;-65
2022/04/21 07:36:49;;;;;;;12.52;7.95;;;;;;;11.35;42.36;95800.75;4944852;28;20066;-65
2022/04/21 07:39:15;;;;;;;11.98;7.60;;;;;;;10.64;43.93;95798.75;4939770;28;20496;-68
2022/04/21 07:41:41;;;;;;;11.98;7.28;;;;;;;12.01;41.71;95794.75;4962799;28;20473;-68
2022/04/21 07:44:07;;;;;;;10.10;6.82;;;;;;;11.60;42.03;95795.22;4955436;28;20113;-65
2022/04/21 07:46:32;;;;;;;12.85;6.80;;;;;;;12.59;41.35;95795.25;4953774;28;20047;-66
2022/04/21 07:51:42;;;;;;;10.30;6.40;;;;;;;12.13;41.42;95799.00;4958857;28;20074;-66
2022/04/21 07:54:08;;;;;;;16.50;7.75;;;;;;;12.71;42.32;95798.69;4936855;28;20125;-66
2022/04/21 07:56:33;;;;;;;9.80;6.85;;;;;;;13.80;39.54;95785.63;4943192;28;20126;-66
2022/04/21 07:58:58;;;;;;;10.05;6.65;;;;;;;12.07;41.23;95789.63;4940158;28;20046;-66
2022/04/21 08:01:24;;;;;;;11.48;6.03;;;;;;;12.64;40.78;95783.06;4933301;28;20824;-66
2022/04/21 08:03:49;;;;;;;12.75;7.22;;;;;;;12.65;41.19;95783.81;4949001;28;20106;-66
2022/04/21 08:06:15;;;;;;;11.68;6.82;;;;;;;14.06;41.29;95782.19;4954696;28;20050;-66
2022/04/21 08:08:40;;;;;;;10.25;6.50;;;;;;;15.45;35.90;95783.34;4962020;28;20043;-67
2022/04/21 08:11:07;;;;;;;10.45;6.45;;;;;;;15.13;37.78;95770.84;4955256;28;20050;-67
2022/04/21 08:13:34;;;;;;;9.13;6.35;;;;;;;17.34;33.78;95777.81;4961800;28;20718;-68
2022/04/21 08:15:59;;;;;;;10.73;7.10;;;;;;;13.05;39.50;95790.59;4956826;28;20109;-67
2022/04/21 08:18:25;;;;;;;10.65;6.78;;;;;;;12.56;41.28;95787.78;4956820;28;20507;-67
2022/04/21 08:20:53;;;;;;;12.48;7.20;;;;;;;12.22;41.66;95791.09;4962257;28;20105;-65
2022/04/21 08:23:19;;;;;;;12.85;7.88;;;;;;;12.08;42.54;95787.66;4956659;28;20109;-66
2022/04/21 08:33:57;;;;;;;11.05;5.93;;;;;;;13.31;39.97;95778.22;4962196;28;20134;-66
2022/04/21 08:36:23;;;;;;;10.63;6.13;;;;;;;14.24;37.16;95779.19;4960042;28;20327;-66
2022/04/21 08:38:48;;;;;;;9.82;6.00;;;;;;;15.08;34.84;95780.38;4967984;28;20050;-66
2022/04/21 08:41:18;;;;;;;8.90;5.90;;;;;;;13.56;38.40;95777.22;4960499;28;20039;-67
2022/04/21 08:43:46;;;;;;;12.57;7.07;;;;;;;14.01;38.13;95774.38;4967676;28;20382;-66
2022/04/21 08:46:20;;;;;;;11.05;6.32;;;;;;;13.22;38.56;95780.66;4964875;28;20683;-67
2022/04/21 08:48:50;;;;;;;9.88;6.57;;;;;;;12.78;39.00;95771.97;4968984;28;20102;-65
2022/04/21 08:51:16;;;;;;;11.85;6.28;;;;;;;13.50;37.87;95762.34;4961815;28;20389;-65
2022/04/21 08:53:42;;;;;;;10.68;6.35;;;;;;;13.85;37.62;95768.66;4964269;28;20037;-66
2022/04/21 08:56:10;;;;;;;11.45;6.28;;;;;;;12.73;38.49;95764.16;4956502;28;20046;-67
2022/04/21 08:58:35;;;;;;;12.35;6.88;;;;;;;13.44;38.36;95764.75;4962193;28;20043;-66
2022/04/21 09:01:00;;;;;;;13.38;6.88;;;;;;;13.30;37.31;95770.34;4961939;28;20101;-66
2022/04/21 09:03:26;;;;;;;13.45;8.02;;;;;;;14.66;36.13;95759.78;4956659;28;20058;-66
2022/04/21 09:05:51;;;;;;;13.13;5.90;;;;;;;13.34;37.13;95765.63;4962305;28;20047;-66
2022/04/21 09:08:25;;;;;;;11.35;6.70;;;;;;;13.67;36.49;95755.09;4957109;28;20106;-66
2022/04/21 09:11:11;;;;;;;8.95;6.10;;;;;;;14.68;37.51;95752.63;4966336;28;20047;-66
2022/04/21 09:13:41;;;;;;;11.05;6.13;;;;;;;14.10;37.77;95749.09;4971201;28;20043;-66
2022/04/21 09:16:09;;;;;;;11.95;6.07;;;;;;;14.95;35.98;95740.81;4959338;28;20039;-66
2022/04/21 09:18:36;;;;;;;10.50;6.60;;;;;;;14.43;34.38;95746.69;4964026;28;20042;-65
2022/04/21 09:21:09;;;;;;;10.35;6.03;;;;;;;14.46;36.84;95746.63;4963828;28;20142;-66
2022/04/21 09:23:34;;;;;;;9.32;5.13;;;;;;;15.44;35.78;95737.63;4961785;28;20137;-66
2022/04/21 09:26:10;;;;;;;12.93;6.43;;;;;;;15.32;34.00;95732.69;4960631;28;20126;-66
2022/04/21 09:28:37;;;;;;;9.57;5.00;;;;;;;16.66;33.15;95729.63;4960720;28;20070;-66
2022/04/21 09:31:06;;;;;;;9.77;6.03;;;;;;;17.68;32.11;95725.91;4962034;28;20165;-66
2022/04/21 09:33:44;;;;;;;9.85;5.20;;;;;;;15.86;34.93;95730.53;4964980;28;20050;-66
2022/04/21 09:36:10;;;;;;;11.68;5.28;;;;;;;14.93;35.34;95734.13;4960569;28;20058;-66
2022/04/21 09:38:35;;;;;;;10.90;6.05;;;;;;;14.92;36.43;95725.09;4967260;28;20050;-66
2022/04/21 09:41:11;;;;;;;11.40;6.47;;;;;;;15.25;35.04;95720.59;4977234;28;20053;-66
2022/04/21 09:43:38;;;;;;;10.95;5.97;;;;;;;14.76;37.01;95713.94;4966614;28;20161;-66
2022/04/21 09:46:17;;;;;;;13.18;6.20;;;;;;;15.23;35.93;95717.50;4960459;28;20043;-67
2022/04/21 09:48:44;;;;;;;9.57;6.13;;;;;;;15.73;35.61;95715.75;4979032;28;20046;-67
2022/04/21 09:51:12;;;;;;;10.27;6.03;;;;;;;15.32;34.48;95710.63;4960127;28;20054;-67
2022/04/21 09:53:46;;;;;;;11.35;6.50;;;;;;;15.91;35.21;95707.16;4965173;28;20566;-66
2022/04/21 09:56:12;;;;;;;11.85;6.93;;;;;;;15.23;35.83;95697.38;4959171;28;20054;-66
2022/04/21 09:58:39;;;;;;;8.35;5.25;;;;;;;15.29;35.25;95696.47;4964143;28;20042;-67
2022/04/21 10:01:05;;;;;;;10.48;5.60;;;;;;;14.81;35.29;95696.94;4958812;28;20045;-67
2022/04/21 10:03:35;;;;;;;10.63;5.90;;;;;;;15.70;34.92;95696.50;4963723;28;20050;-66
2022/04/21 10:06:01;;;;;;;10.13;5.88;;;;;;;14.51;34.83;95690.28;4963181;28;20496;-66
2022/04/21 10:08:31;;;;;;;11.63;6.07;;;;;;;14.99;34.07;95689.13;4959558;28;20046;-67
2022/04/21 10:10:56;;;;;;;10.60;6.43;;;;;;;15.24;34.83;95679.66;4964306;28;20058;-66
2022/04/21 10:13:22;;;;;;;11.57;6.45;;;;;;;14.71;36.96;95673.84;4958493;28;20390;-65
2022/04/21 10:15:51;;;;;;;14.60;7.20;;;;;;;15.09;35.58;95688.19;4963773;28;20082;-65
2022/04/21 10:18:18;;;;;;;8.20;5.53;;;;;;;14.77;35.99;95674.94;4959228;28;20224;-67
2022/04/21 10:20:45;;;;;;;10.35;6.68;;;;;;;14.88;35.87;95677.50;4964271;28;20046;-66
2022/04/21 10:23:18;;;;;;;9.10;4.95;;;;;;;16.46;35.10;95671.66;4958315;28;20081;-66
2022/04/21 10:25:44;;;;;;;8.65;5.20;;;;;;;15.86;32.28;95669.78;4962030;28;20062;-66
2022/04/21 10:28:34;;;;;;;11.95;6.38;;;;;;;16.19;33.39;95661.59;4958719;28;20483;-66
2022/04/21 10:31:29;;;;;;;11.80;5.70;;;;;;;16.72;32.19;95667.06;4964092;28;20034;-66
2022/04/21 10:33:56;;;;;;;8.80;5.57;;;;;;;15.27;32.88;95663.03;4963163;28;20043;-66
2022/04/21 10:36:36;;;;;;;10.73;5.88;;;;;;;14.47;34.11;95653.75;4956823;28;22758;-65
2022/04/21 10:39:12;;;;;;;10.32;5.82;;;;;;;15.87;34.04;95645.72;4963776;28;20046;-67
2022/04/21 10:41:38;;;;;;;10.15;5.15;;;;;;;16.00;33.87;95646.59;4962724;28;20047;-67
2022/04/21 10:44:12;;;;;;;7.55;5.15;;;;;;;16.60;33.05;95651.97;4960247;28;20054;-66
2022/04/21 10:46:37;;;;;;;9.95;5.93;;;;;;;16.00;32.79;95645.84;4963509;28;20105;-66
2022/04/21 10:49:02;;;;;;;10.20;5.70;;;;;;;16.01;32.58;95644.63;4962238;28;20039;-66
2022/04/21 10:57:32;;;;;;;9.70;5.95;;;;;;;15.19;33.41;95624.97;4946338;28;20045;-66
2022/04/21 11:00:08;;;;;;;11.35;6.60;;;;;;;15.03;36.52;95631.16;4963286;28;20047;-66
2022/04/21 11:02:44;;;;;;;12.32;6.25;;;;;;;14.85;34.81;95621.22;4962023;28;20552;-66
2022/04/21 11:05:22;;;;;;;9.55;5.78;;;;;;;15.13;34.65;95618.41;4953608;28;20189;-66
2022/04/21 11:07:52;;;;;;;8.05;5.93;;;;;;;15.57;33.80;95610.81;4957968;28;20039;-65
2022/04/21 11:10:39;;;;;;;11.85;6.30;;;;;;;15.76;34.96;95612.81;4957702;28;20054;-66
2022/04/21 11:13:17;;;;;;;9.55;5.15;;;;;;;16.99;33.20;95607.97;4957242;28;20042;-66
2022/04/21 11:15:49;;;;;;;9.95;5.68;;;;;;;16.55;33.30;95608.25;4961214;28;20043;-65
2022/04/21 11:18:19;;;;;;;9.75;5.90;;;;;;;16.32;34.57;95608.41;4958348;28;20130;-66
2022/04/21 11:20:49;;;;;;;13.43;6.20;;;;;;;17.14;32.89;95600.03;4963377;28;20078;-65
2022/04/21 11:23:30;;;;;;;10.45;5.07;;;;;;;17.45;32.64;95594.06;4957864;28;20043;-66
2022/04/21 11:26:09;;;;;;;12.52;5.70;;;;;;;16.69;31.30;95596.06;4962106;28;20133;-66
2022/04/21 11:28:35;;;;;;;8.38;5.32;;;;;;;15.79;35.13;95598.16;4960770;28;20054;-66
2022/04/21 11:31:02;;;;;;;10.25;5.57;;;;;;;15.47;34.19;95587.78;4963739;28;20066;-66
2022/04/21 11:33:28;;;;;;;10.98;6.03;;;;;;;15.79;35.46;95589.09;4966131;28;20035;-66
2022/04/21 11:36:08;;;;;;;8.35;5.75;;;;;;;15.15;34.03;95575.41;4967498;28;20046;-65
2022/04/21 11:38:35;;;;;;;9.50;6.32;;;;;;;15.65;33.77;95579.13;4967438;28;20043;-66
2022/04/21 11:41:05;;;;;;;10.88;6.05;;;;;;;16.43;36.16;95578.53;4967279;28;20042;-67
2022/04/21 11:43:31;;;;;;;10.52;5.93;;;;;;;17.13;33.92;95577.16;4965952;28;20563;-64
2022/04/21 11:45:59;;;;;;;10.40;5.88;;;;;;;17.37;32.32;95576.88;4963052;28;20038;-65
2022/04/21 11:48:29;;;;;;;12.40;5.88;;;;;;;17.12;33.80;95577.59;4961067;28;20700;-63
2022/04/21 11:50:55;;;;;;;15.88;6.10;;;;;;;15.88;33.64;95578.22;4965591;28;20504;-63
2022/04/21 11:53:20;;;;;;;11.00;5.88;;;;;;;15.67;34.65;95573.94;4958333;28;20053;-64
2022/04/21 11:55:47;;;;;;;10.07;6.18;;;;;;;15.48;34.50;95570.78;4962428;28;20104;-64
2022/04/21 11:58:25;;;;;;;8.32;5.25;;;;;;;15.87;35.94;95576.69;4956061;28;20031;-64
2022/04/21 12:06:30;;;;;;;11.30;6.25;;;;;;;16.58;35.13;95570.66;4957479;28;20049;-65
2022/04/21 12:08:56;;;;;;;10.75;5.75;;;;;;;16.42;34.56;95574.22;4962514;28;20066;-65
2022/04/21 12:11:22;;;;;;;8.63;5.70;;;;;;;16.00;33.50;95574.03;4956692;28;20979;-66
2022/04/21 12:13:49;;;;;;;10.90;5.78;;;;;;;15.46;34.61;95570.41;4961743;28;20058;-66
2022/04/21 12:16:46;;;;;;;11.93;5.55;;;;;;;15.49;35.32;95561.28;4956167;28;20607;-66
2022/04/21 12:19:26;;;;;;;8.07;4.93;;;;;;;15.85;34.41;95565.28;4952268;28;20038;-65